createdAt,value
2017-12-05T00:01:22.641Z,18.65
2017-12-05T00:03:50.717Z,17.83
2017-12-05T00:06:18.790Z,18.02
2017-12-05T00:08:46.892Z,18.02
2017-12-05T00:11:15.374Z,17.30
2017-12-05T00:13:43.433Z,18.52
2017-12-05T00:16:11.505Z,18.25
2017-12-05T00:18:39.671Z,18.02
2017-12-05T00:21:07.746Z,18.55
2017-12-05T00:23:35.917Z,20.30
2017-12-05T00:26:03.981Z,17.17
2017-12-05T00:28:32.057Z,16.92
2017-12-05T00:31:00.229Z,17.48
2017-12-05T00:33:28.401Z,17.02
2017-12-05T00:35:56.577Z,18.90
2017-12-05T00:38:24.655Z,18.60
2017-12-05T00:40:52.713Z,19.17
2017-12-05T00:43:20.797Z,17.42
2017-12-05T00:45:48.865Z,19.30
2017-12-05T00:48:16.955Z,19.12
2017-12-05T00:50:45.023Z,19.05
2017-12-05T00:53:13.199Z,17.25
2017-12-05T00:55:41.386Z,17.48
2017-12-05T00:58:09.447Z,17.67
2017-12-05T01:00:38.021Z,19.02
2017-12-05T01:03:06.194Z,17.75
2017-12-05T01:05:34.272Z,19.70
2017-12-05T01:08:02.442Z,18.25
2017-12-05T01:10:30.508Z,19.70
2017-12-05T01:12:58.583Z,18.65
2017-12-05T01:15:26.753Z,19.10
2017-12-05T01:17:54.813Z,18.70
2017-12-05T01:20:22.897Z,17.45
2017-12-05T01:22:51.069Z,19.60
2017-12-05T01:37:39.514Z,19.25
2017-12-05T01:40:07.984Z,20.37
2017-12-05T01:42:36.066Z,19.00
2017-12-05T01:45:04.237Z,19.23
2017-12-05T01:47:32.289Z,20.35
2017-12-05T01:50:00.345Z,19.90
2017-12-05T01:52:29.269Z,20.55
2017-12-05T01:54:57.436Z,19.33
2017-12-05T01:57:25.513Z,22.35
2017-12-05T01:59:53.700Z,21.35
2017-12-05T02:02:21.855Z,22.05
2017-12-05T02:04:49.984Z,20.85
2017-12-05T02:07:18.621Z,20.25
2017-12-05T02:09:46.793Z,21.58
2017-12-05T02:12:14.865Z,20.83
2017-12-05T02:14:42.957Z,20.88
2017-12-05T02:17:11.111Z,20.37
2017-12-05T02:19:40.004Z,19.57
2017-12-05T02:22:08.093Z,19.90
2017-12-05T02:24:36.146Z,22.63
2017-12-05T02:27:04.245Z,21.83
2017-12-05T02:29:32.369Z,22.35
2017-12-05T02:32:00.433Z,21.17
2017-12-05T02:34:28.494Z,21.08
2017-12-05T02:36:57.349Z,21.45
2017-12-05T02:39:25.502Z,22.13
2017-12-05T02:41:53.564Z,21.75
2017-12-05T02:44:21.637Z,22.55
2017-12-05T02:46:50.125Z,21.30
2017-12-05T02:49:18.301Z,23.25
2017-12-05T02:51:46.378Z,22.95
2017-12-05T02:54:14.545Z,21.15
2017-12-05T02:56:43.012Z,21.67
2017-12-05T02:59:11.549Z,21.48
2017-12-05T03:01:39.661Z,21.65
2017-12-05T03:04:07.748Z,20.88
2017-12-05T04:57:24.793Z,21.27
2017-12-05T04:59:52.872Z,19.83
2017-12-05T05:02:20.957Z,18.35
2017-12-05T05:04:50.154Z,19.58
2017-12-05T05:07:18.696Z,22.40
2017-12-05T05:09:46.766Z,20.10
2017-12-05T05:12:15.589Z,20.10
2017-12-05T05:14:43.668Z,20.58
2017-12-05T05:17:12.481Z,19.75
2017-12-05T05:19:40.533Z,18.80
2017-12-05T05:22:08.601Z,21.02
2017-12-05T05:24:36.689Z,19.40
2017-12-05T05:27:04.780Z,19.33
2017-12-05T05:29:32.837Z,18.23
2017-12-05T05:32:00.894Z,18.90
2017-12-05T05:34:28.961Z,20.17
2017-12-05T05:36:57.018Z,21.02
2017-12-05T05:39:25.090Z,19.25
2017-12-05T05:41:53.149Z,20.73
2017-12-05T05:44:21.994Z,20.08
2017-12-05T05:46:50.037Z,20.58
2017-12-05T05:49:18.112Z,20.17
2017-12-05T05:59:10.002Z,20.70
2017-12-05T06:01:38.100Z,22.50
2017-12-05T06:04:06.240Z,21.27
2017-12-05T06:06:34.313Z,20.02
2017-12-05T06:09:02.493Z,20.90
2017-12-05T06:11:30.549Z,19.70
2017-12-05T06:13:58.677Z,20.30
2017-12-05T06:16:26.805Z,20.10
2017-12-05T06:18:55.653Z,19.50
2017-12-05T06:21:24.517Z,20.88
2017-12-05T06:23:52.660Z,20.70
2017-12-05T06:26:20.729Z,19.30
2017-12-05T06:28:48.805Z,20.02
2017-12-05T06:38:41.025Z,18.95
2017-12-05T06:41:09.170Z,18.45
2017-12-05T06:43:37.226Z,18.37
2017-12-05T06:46:05.712Z,18.67
2017-12-05T06:48:33.794Z,24.12
2017-12-05T06:51:01.866Z,20.95
2017-12-05T06:53:31.166Z,19.75
2017-12-05T06:55:59.336Z,19.40
2017-12-05T06:58:27.397Z,18.55
2017-12-05T07:00:56.601Z,18.02
2017-12-05T07:03:24.695Z,19.50
2017-12-05T07:05:52.853Z,15.70
2017-12-05T07:08:20.929Z,17.92
2017-12-05T07:10:49.105Z,17.25
2017-12-05T07:13:17.549Z,16.55
2017-12-05T07:15:45.629Z,17.37
2017-12-05T07:18:14.132Z,16.42
2017-12-05T07:20:42.317Z,14.98
2017-12-05T07:23:10.480Z,15.40
2017-12-05T07:25:38.570Z,15.52
2017-12-05T07:28:07.415Z,15.45
2017-12-05T07:30:35.445Z,15.65
2017-12-05T07:33:03.585Z,14.77
2017-12-05T07:35:31.760Z,15.00
2017-12-05T07:37:59.833Z,15.95
2017-12-05T07:40:28.286Z,17.08
2017-12-05T07:42:57.132Z,15.45
2017-12-05T07:45:25.196Z,17.05
2017-12-05T07:47:53.368Z,15.88
2017-12-05T07:50:22.157Z,15.18
2017-12-05T07:52:51.030Z,14.80
2017-12-05T07:55:19.105Z,14.43
2017-12-05T07:57:47.178Z,15.45
2017-12-05T08:00:15.670Z,15.27
2017-12-05T08:02:43.724Z,15.18
2017-12-05T08:05:11.801Z,14.30
2017-12-05T08:07:39.876Z,14.02
2017-12-05T08:10:08.085Z,15.13
2017-12-05T08:12:36.137Z,14.43
2017-12-05T08:15:04.215Z,15.35
2017-12-05T08:17:32.365Z,15.52
2017-12-05T08:20:00.434Z,15.27
2017-12-05T08:22:28.498Z,14.15
2017-12-05T08:24:56.577Z,14.55
2017-12-05T08:27:24.633Z,13.05
2017-12-05T08:29:53.546Z,14.40
2017-12-05T08:32:21.604Z,13.55
2017-12-05T08:34:49.677Z,14.10
2017-12-05T08:37:17.737Z,13.80
2017-12-05T08:39:45.805Z,12.60
2017-12-05T08:42:13.897Z,13.02
2017-12-05T08:44:41.961Z,13.20
2017-12-05T08:47:10.049Z,14.00
2017-12-05T08:49:38.117Z,12.77
2017-12-05T08:52:06.197Z,13.68
2017-12-05T08:54:35.260Z,13.30
2017-12-05T08:57:03.362Z,13.70
2017-12-05T08:59:31.425Z,12.27
2017-12-05T09:01:59.609Z,11.90
2017-12-05T09:04:27.689Z,13.15
2017-12-05T09:06:57.277Z,12.85
2017-12-05T09:09:25.454Z,12.93
2017-12-05T09:11:53.525Z,12.20
2017-12-05T09:14:21.717Z,12.07
2017-12-05T09:16:49.781Z,11.07
2017-12-05T09:19:17.949Z,12.45
2017-12-05T09:21:46.117Z,13.10
2017-12-05T09:24:14.178Z,11.75
2017-12-05T09:26:43.028Z,11.70
2017-12-05T09:29:11.157Z,11.88
2017-12-05T09:31:39.233Z,10.75
2017-12-05T09:34:07.300Z,10.82
2017-12-05T09:36:35.352Z,12.05
2017-12-05T09:39:03.438Z,11.77
2017-12-05T09:41:31.613Z,11.98
2017-12-05T09:43:59.700Z,10.35
2017-12-05T09:46:27.853Z,10.30
2017-12-05T09:48:55.913Z,11.05
2017-12-05T09:51:24.010Z,11.05
2017-12-05T09:53:52.080Z,11.52
2017-12-05T09:56:20.154Z,10.70
2017-12-05T09:58:48.226Z,11.85
2017-12-05T10:01:16.406Z,12.32
2017-12-05T10:03:44.474Z,11.50
2017-12-05T10:06:12.646Z,12.15
2017-12-05T10:08:41.517Z,11.20
2017-12-05T10:11:09.573Z,11.15
2017-12-05T10:13:38.085Z,12.45
2017-12-05T10:16:06.162Z,11.45
2017-12-05T10:18:34.337Z,10.82
2017-12-05T10:21:02.410Z,11.25
2017-12-05T10:23:31.618Z,11.98
2017-12-05T10:25:59.674Z,10.40
2017-12-05T10:28:29.144Z,11.63
2017-12-05T10:30:57.157Z,11.52
2017-12-05T10:33:25.424Z,12.68
2017-12-05T10:35:53.516Z,10.32
2017-12-05T10:38:21.581Z,12.30
2017-12-05T10:40:49.662Z,12.00
2017-12-05T10:43:17.726Z,11.32
2017-12-05T10:45:45.889Z,9.85
2017-12-05T10:48:13.958Z,9.63
2017-12-05T10:50:42.009Z,10.77
2017-12-05T10:53:10.075Z,11.55
2017-12-05T10:55:38.898Z,11.85
2017-12-05T10:58:06.953Z,11.55
2017-12-05T11:00:37.398Z,10.63
2017-12-05T11:03:05.470Z,10.52
2017-12-05T11:05:33.637Z,12.77
2017-12-05T11:08:01.714Z,11.00
2017-12-05T11:10:29.777Z,9.63
2017-12-05T11:12:58.269Z,10.50
2017-12-05T11:15:26.441Z,11.55
2017-12-05T11:17:54.618Z,9.82
2017-12-05T11:20:22.669Z,10.25
2017-12-05T11:22:52.246Z,10.38
2017-12-05T11:25:21.188Z,8.93
2017-12-05T11:27:49.233Z,10.73
2017-12-05T11:30:17.301Z,10.07
2017-12-05T11:32:46.217Z,10.45
2017-12-05T11:35:14.261Z,8.50
2017-12-05T11:37:43.181Z,8.40
2017-12-05T11:40:11.253Z,9.45
2017-12-05T11:42:39.317Z,10.20
2017-12-05T11:45:07.393Z,9.73
2017-12-05T11:47:35.449Z,9.95
2017-12-05T11:50:03.945Z,8.65
2017-12-05T11:52:32.769Z,10.00
2017-12-05T11:55:00.844Z,8.75
2017-12-05T11:57:28.894Z,9.45
2017-12-05T11:59:57.383Z,9.60
2017-12-05T12:02:26.259Z,8.63
2017-12-05T12:04:54.329Z,9.20
2017-12-05T12:07:22.373Z,8.55
2017-12-05T12:09:50.432Z,8.63
2017-12-05T12:12:19.281Z,8.95
2017-12-05T12:14:47.433Z,10.07
2017-12-05T12:17:15.485Z,9.20
2017-12-05T12:19:43.557Z,10.05
2017-12-05T12:22:11.609Z,8.75
2017-12-05T12:24:40.429Z,9.23
2017-12-05T12:27:08.510Z,10.00
2017-12-05T12:29:36.561Z,10.35
2017-12-05T12:32:04.649Z,8.75
2017-12-05T12:34:32.768Z,9.60
2017-12-05T12:37:00.798Z,8.80
2017-12-05T12:39:28.969Z,10.88
2017-12-05T12:41:57.034Z,8.82
2017-12-05T12:44:25.222Z,8.35
2017-12-05T12:46:53.285Z,9.20
2017-12-05T12:49:21.333Z,9.27
2017-12-05T12:51:50.166Z,9.07
2017-12-05T12:54:18.317Z,8.68
2017-12-05T12:56:46.497Z,10.10
2017-12-05T12:59:14.569Z,9.77
2017-12-05T13:01:42.745Z,10.15
2017-12-05T13:04:10.812Z,10.48
2017-12-05T13:06:40.013Z,10.90
2017-12-05T13:09:08.081Z,10.85
2017-12-05T13:11:36.173Z,10.98
2017-12-05T13:14:04.259Z,12.07
2017-12-05T13:16:32.405Z,9.63
2017-12-05T13:19:00.849Z,9.32
2017-12-05T13:21:29.370Z,11.98
2017-12-05T13:23:57.443Z,10.48
2017-12-05T13:26:25.513Z,10.02
2017-12-05T13:28:53.576Z,9.32
2017-12-05T13:31:21.654Z,9.82
2017-12-05T13:33:49.723Z,9.85
2017-12-05T13:36:17.769Z,9.43
2017-12-05T13:38:45.842Z,10.20
2017-12-05T13:41:13.914Z,11.35
2017-12-05T13:43:41.974Z,11.18
2017-12-05T13:46:10.905Z,11.30
2017-12-05T13:48:38.997Z,11.60
2017-12-05T13:51:07.149Z,10.60
2017-12-05T13:53:35.274Z,10.00
2017-12-05T13:56:03.348Z,9.70
2017-12-05T13:58:31.802Z,9.48
2017-12-05T14:00:59.945Z,10.07
2017-12-05T14:03:28.014Z,9.90
2017-12-05T14:05:56.097Z,10.43
2017-12-05T14:08:24.182Z,9.65
2017-12-05T14:10:52.237Z,12.35
2017-12-05T14:13:20.304Z,10.70
2017-12-05T14:15:48.377Z,11.50
2017-12-05T14:18:16.434Z,10.95
2017-12-05T14:20:44.505Z,12.63
2017-12-05T14:23:12.554Z,12.57
2017-12-05T14:25:41.490Z,11.38
2017-12-05T14:28:09.661Z,10.50
2017-12-05T14:30:37.718Z,11.80
2017-12-05T14:33:05.771Z,11.32
2017-12-05T14:35:34.290Z,11.70
2017-12-05T14:38:02.377Z,12.13
2017-12-05T14:40:31.245Z,12.60
2017-12-05T14:42:59.301Z,12.23
2017-12-05T14:45:27.758Z,12.07
2017-12-05T14:47:56.614Z,12.43
2017-12-05T14:50:24.765Z,11.60
2017-12-05T14:52:52.840Z,11.18
2017-12-05T14:55:21.026Z,12.05
2017-12-05T14:57:49.903Z,11.07
2017-12-05T15:00:17.981Z,13.25
2017-12-05T15:02:46.865Z,11.40
2017-12-05T15:05:15.757Z,10.95
2017-12-05T15:07:43.824Z,12.90
2017-12-05T15:10:12.005Z,12.23
2017-12-05T15:12:40.177Z,11.02
2017-12-05T15:15:08.239Z,11.77
2017-12-05T15:17:37.077Z,11.50
2017-12-05T15:20:05.222Z,12.18
2017-12-05T15:22:33.400Z,12.68
2017-12-05T15:25:02.278Z,12.57
2017-12-05T15:27:30.353Z,12.50
2017-12-05T15:29:58.421Z,13.25
2017-12-05T15:32:26.501Z,13.10
2017-12-05T15:34:54.549Z,12.68
2017-12-05T15:37:22.610Z,12.57
2017-12-05T15:39:50.709Z,13.10
2017-12-05T15:42:18.782Z,12.27
2017-12-05T15:44:46.922Z,13.70
2017-12-05T15:47:14.929Z,13.25
2017-12-05T15:49:43.093Z,13.05
2017-12-05T15:52:11.174Z,13.07
2017-12-05T15:54:39.629Z,14.55
2017-12-05T15:57:08.101Z,14.10
2017-12-05T15:59:36.224Z,13.13
2017-12-05T16:02:04.377Z,14.63
2017-12-05T16:04:32.448Z,13.62
2017-12-05T16:07:00.510Z,14.52
2017-12-05T16:09:28.578Z,15.10
2017-12-05T16:11:57.406Z,14.30
2017-12-05T16:14:25.561Z,14.43
2017-12-05T16:16:53.724Z,15.75
2017-12-05T16:19:21.809Z,13.02
2017-12-05T16:21:50.653Z,16.08
2017-12-05T16:24:19.585Z,14.48
2017-12-05T16:26:47.895Z,13.65
2017-12-05T16:29:16.037Z,14.87
2017-12-05T16:31:44.109Z,13.80
2017-12-05T16:34:12.281Z,14.98
2017-12-05T16:36:40.750Z,15.02
2017-12-05T16:39:08.801Z,15.63
2017-12-05T16:41:37.729Z,15.52
2017-12-05T16:44:05.810Z,15.10
2017-12-05T16:46:33.885Z,14.45
2017-12-05T16:49:02.058Z,14.30
2017-12-05T16:51:30.321Z,14.90
2017-12-05T16:53:58.498Z,13.50
2017-12-05T16:56:26.554Z,13.75
2017-12-05T16:58:54.630Z,14.55
2017-12-05T17:01:22.789Z,16.17
2017-12-05T17:03:50.885Z,13.80
2017-12-05T17:06:18.945Z,13.70
2017-12-05T17:08:47.000Z,16.55
2017-12-05T17:11:15.098Z,14.00
2017-12-05T17:13:43.152Z,14.25
2017-12-05T17:16:11.249Z,13.73
2017-12-05T17:18:39.321Z,14.50
2017-12-05T17:21:09.066Z,15.00
2017-12-05T17:23:37.123Z,13.62
2017-12-05T17:26:05.177Z,13.02
2017-12-05T17:28:34.033Z,14.98
2017-12-05T17:31:02.092Z,14.05
2017-12-05T17:33:31.505Z,14.45
2017-12-05T17:35:59.505Z,13.18
2017-12-05T17:38:27.565Z,14.23
2017-12-05T17:40:55.650Z,15.15
2017-12-05T17:43:24.129Z,15.60
2017-12-05T17:45:52.200Z,14.57
2017-12-05T17:48:21.102Z,13.23
2017-12-05T17:50:49.160Z,14.77
2017-12-05T17:53:17.237Z,14.60
2017-12-05T17:55:45.409Z,13.62
2017-12-05T17:58:13.489Z,14.02
2017-12-05T18:00:41.546Z,13.85
2017-12-05T18:03:09.740Z,15.43
2017-12-05T18:05:37.795Z,14.32
2017-12-05T18:13:01.097Z,16.20
2017-12-05T18:15:29.268Z,14.13
2017-12-05T18:17:58.164Z,14.07
2017-12-05T18:20:26.235Z,15.90
2017-12-05T18:22:54.400Z,14.55
2017-12-05T18:25:22.477Z,14.32
2017-12-05T18:27:50.549Z,14.65
2017-12-05T18:30:19.369Z,13.40
2017-12-05T18:32:47.514Z,14.77
2017-12-05T18:35:15.653Z,13.40
2017-12-05T18:37:44.544Z,13.95
2017-12-05T18:40:14.113Z,12.45
2017-12-05T18:42:42.593Z,14.15
2017-12-05T18:45:10.662Z,15.43
2017-12-05T18:47:38.825Z,14.15
2017-12-05T18:50:07.293Z,13.57
2017-12-05T18:52:35.380Z,13.00
2017-12-05T18:55:03.926Z,14.80
2017-12-05T18:57:32.369Z,14.30
2017-12-05T19:00:01.582Z,15.05
2017-12-05T19:02:30.829Z,17.23
2017-12-05T19:04:58.893Z,14.70
2017-12-05T19:07:26.976Z,15.32
2017-12-05T19:09:56.389Z,13.15
2017-12-05T19:12:25.585Z,13.50
2017-12-05T19:14:55.153Z,13.90
2017-12-05T19:17:23.253Z,15.05
2017-12-05T19:19:51.732Z,14.13
2017-12-05T19:22:20.313Z,14.95
2017-12-05T19:24:49.902Z,14.73
2017-12-05T19:27:19.489Z,15.00
2017-12-05T19:29:48.426Z,13.80
2017-12-05T19:32:16.493Z,13.48
2017-12-05T19:34:44.987Z,13.25
2017-12-05T19:37:13.789Z,14.73
2017-12-05T19:39:42.353Z,13.02
2017-12-05T19:42:11.760Z,14.60
2017-12-05T19:44:40.125Z,14.52
2017-12-05T19:47:09.564Z,13.30
2017-12-05T19:49:38.894Z,14.57
2017-12-05T19:52:08.384Z,14.25
2017-12-05T19:54:36.445Z,13.93
2017-12-05T19:57:05.006Z,13.13
2017-12-05T19:59:33.169Z,12.55
2017-12-05T20:02:02.070Z,14.48
2017-12-05T20:04:31.484Z,14.55
2017-12-05T20:06:59.537Z,13.68
2017-12-05T20:09:28.001Z,13.73
2017-12-05T20:11:56.070Z,12.88
2017-12-05T20:14:24.520Z,13.50
2017-12-05T20:16:53.340Z,13.10
2017-12-05T20:19:21.429Z,14.80
2017-12-05T20:21:51.045Z,14.45
2017-12-05T20:24:20.249Z,15.13
2017-12-05T20:26:48.417Z,14.90
2017-12-05T20:29:17.629Z,13.60
2017-12-05T20:31:46.197Z,14.05
2017-12-05T20:34:15.609Z,13.05
2017-12-05T20:36:44.797Z,13.60
2017-12-05T20:39:12.883Z,14.15
2017-12-05T20:41:42.062Z,12.70
2017-12-05T20:44:11.542Z,15.07
2017-12-05T20:46:39.977Z,14.48
2017-12-05T20:49:08.789Z,13.50
2017-12-05T20:51:38.216Z,14.70
2017-12-05T20:56:34.513Z,12.50
2017-12-05T20:59:02.603Z,14.35
2017-12-05T21:01:31.065Z,14.10
2017-12-05T21:04:02.183Z,12.90
2017-12-05T21:06:30.266Z,12.90
2017-12-05T21:08:58.440Z,15.38
2017-12-05T21:11:27.872Z,14.35
2017-12-05T21:13:57.043Z,14.07
2017-12-05T21:16:25.092Z,12.63
2017-12-05T21:18:53.165Z,14.50
2017-12-05T21:21:21.613Z,13.98
2017-12-05T21:23:50.886Z,14.80
2017-12-05T21:26:19.335Z,14.40
2017-12-05T21:28:48.252Z,15.35
2017-12-05T21:31:16.333Z,15.37
2017-12-05T21:33:44.477Z,14.80
2017-12-05T21:36:12.532Z,15.38
2017-12-05T21:38:41.038Z,16.60
2017-12-05T21:41:09.877Z,14.90
2017-12-05T21:43:38.350Z,15.55
2017-12-05T21:46:06.473Z,15.73
2017-12-05T21:48:34.598Z,16.27
2017-12-05T21:51:03.009Z,16.02
2017-12-05T21:53:31.068Z,16.42
2017-12-05T21:55:59.529Z,15.27
2017-12-05T21:58:27.601Z,16.40
2017-12-05T22:00:55.664Z,16.60
2017-12-05T22:03:23.801Z,15.40
2017-12-05T22:05:51.874Z,14.48
2017-12-05T22:08:19.941Z,15.65
2017-12-05T22:10:48.425Z,14.65
2017-12-05T22:13:16.909Z,14.50
2017-12-05T22:15:44.966Z,15.65
2017-12-05T22:18:13.044Z,15.77
2017-12-05T22:20:41.226Z,15.88
2017-12-05T22:23:10.664Z,15.80
2017-12-05T22:25:39.097Z,16.62
2017-12-05T22:28:07.186Z,16.45
2017-12-05T22:30:35.353Z,16.15
2017-12-05T22:33:03.425Z,15.52
2017-12-05T22:35:31.481Z,18.52
2017-12-05T22:37:59.553Z,19.15
2017-12-05T22:40:27.626Z,18.95
2017-12-05T22:42:55.689Z,16.92
2017-12-05T22:45:23.749Z,16.87
2017-12-05T22:47:52.580Z,18.33
2017-12-05T22:50:20.753Z,18.58
2017-12-05T22:52:48.822Z,19.10
2017-12-05T22:55:16.878Z,17.10
2017-12-05T22:57:44.965Z,17.58
2017-12-05T23:00:13.030Z,17.23
2017-12-05T23:02:41.097Z,17.80
2017-12-05T23:05:09.153Z,17.45
2017-12-05T23:07:37.249Z,17.80
2017-12-05T23:10:05.308Z,17.00
2017-12-05T23:12:33.370Z,15.52
2017-12-05T23:15:02.198Z,17.98
2017-12-05T23:17:30.258Z,17.00
2017-12-05T23:19:58.326Z,18.05
2017-12-05T23:22:26.381Z,17.33
2017-12-05T23:24:54.453Z,16.05
2017-12-05T23:27:22.545Z,16.62
2017-12-05T23:29:50.607Z,17.25
2017-12-05T23:32:18.678Z,16.83
2017-12-05T23:34:46.737Z,17.98
2017-12-05T23:37:14.796Z,15.50
2017-12-05T23:39:43.633Z,16.08
2017-12-05T23:42:11.690Z,16.67
2017-12-05T23:44:39.759Z,17.40
2017-12-05T23:47:08.252Z,17.00
2017-12-05T23:49:36.416Z,15.63
2017-12-05T23:52:04.497Z,17.23
2017-12-05T23:54:32.664Z,16.48
2017-12-05T23:57:00.832Z,17.08
2017-12-05T23:59:28.909Z,15.85
